createdAt,value
2023-02-02T00:00:11.177Z,23.75
2023-02-02T00:02:43.357Z,16.60
2023-02-02T00:05:15.383Z,20.75
2023-02-02T00:07:47.452Z,18.62
2023-02-02T00:10:19.541Z,19.87
2023-02-02T00:12:51.486Z,20.23
2023-02-02T00:15:23.813Z,20.92
2023-02-02T00:17:56.338Z,19.10
2023-02-02T00:20:28.545Z,18.73
2023-02-02T00:23:00.345Z,18.98
2023-02-02T00:25:32.612Z,17.05
2023-02-02T00:28:05.149Z,17.40
2023-02-02T00:30:37.312Z,19.32
2023-02-02T00:33:10.345Z,19.50
2023-02-02T00:35:43.084Z,18.30
2023-02-02T00:38:15.193Z,17.15
2023-02-02T00:40:47.555Z,14.70
2023-02-02T00:43:20.179Z,15.90
2023-02-02T00:45:52.438Z,18.55
2023-02-02T00:48:26.128Z,18.75
2023-02-02T00:50:58.052Z,10.55
2023-02-02T00:53:30.230Z,15.70
2023-02-02T00:56:02.662Z,17.70
2023-02-02T00:58:34.626Z,20.70
2023-02-02T01:01:06.687Z,16.60
2023-02-02T01:03:39.127Z,18.32
2023-02-02T01:06:11.305Z,15.10
2023-02-02T01:08:43.563Z,19.60
2023-02-02T01:11:16.459Z,15.98
2023-02-02T01:13:48.548Z,17.80
2023-02-02T01:16:22.698Z,15.75
2023-02-02T01:18:54.793Z,19.87
2023-02-02T01:21:27.170Z,15.63
2023-02-02T01:23:59.287Z,16.50
2023-02-02T01:26:31.504Z,15.83
2023-02-02T01:29:03.633Z,14.68
2023-02-02T01:31:35.829Z,16.67
2023-02-02T01:34:07.948Z,16.35
2023-02-02T01:36:40.020Z,14.03
2023-02-02T01:39:12.045Z,14.43
2023-02-02T01:41:44.157Z,14.00
2023-02-02T01:44:51.506Z,16.27
2023-02-02T01:47:26.444Z,14.87
2023-02-02T01:49:58.744Z,16.55
2023-02-02T01:52:35.861Z,15.05
2023-02-02T01:55:11.305Z,15.88
2023-02-02T01:58:02.394Z,13.80
2023-02-02T02:00:34.741Z,15.13
2023-02-02T02:03:09.647Z,13.20
2023-02-02T02:05:47.941Z,18.15
2023-02-02T02:08:29.031Z,15.40
2023-02-02T02:11:01.587Z,17.40
2023-02-02T02:13:53.177Z,14.58
2023-02-02T02:16:33.954Z,17.15
2023-02-02T02:19:09.028Z,13.38
2023-02-02T02:22:16.525Z,20.57
2023-02-02T02:25:13.185Z,16.37
2023-02-02T02:27:51.088Z,15.90
2023-02-02T02:30:53.615Z,14.07
2023-02-02T02:33:28.849Z,16.35
2023-02-02T02:36:09.980Z,15.90
2023-02-02T02:38:50.570Z,17.02
2023-02-02T02:41:28.265Z,17.37
2023-02-02T02:44:06.865Z,16.80
2023-02-02T02:46:40.159Z,15.70
2023-02-02T02:49:14.475Z,13.25
2023-02-02T02:51:49.468Z,18.55
2023-02-02T02:54:31.717Z,18.95
2023-02-02T02:57:20.084Z,17.92
2023-02-02T03:00:07.481Z,15.38
2023-02-02T03:02:45.479Z,18.37
2023-02-02T03:05:29.598Z,15.25
2023-02-02T03:08:10.699Z,15.90
2023-02-02T03:10:45.002Z,17.57
2023-02-02T03:13:18.223Z,15.50
2023-02-02T03:15:50.492Z,16.53
2023-02-02T03:18:25.964Z,15.55
2023-02-02T03:20:58.513Z,21.48
2023-02-02T03:23:31.058Z,20.37
2023-02-02T03:26:03.362Z,18.12
2023-02-02T03:28:36.439Z,15.23
2023-02-02T03:31:09.014Z,16.50
2023-02-02T03:33:41.275Z,16.23
2023-02-02T03:36:13.351Z,15.15
2023-02-02T03:38:46.201Z,17.85
2023-02-02T03:41:18.909Z,14.55
2023-02-02T03:43:51.753Z,15.50
2023-02-02T03:46:24.257Z,20.10
2023-02-02T03:48:56.429Z,16.45
2023-02-02T03:51:28.508Z,18.00
2023-02-02T03:54:00.792Z,16.90
2023-02-02T03:56:33.123Z,16.00
2023-02-02T03:59:05.893Z,17.42
2023-02-02T04:01:38.673Z,20.37
2023-02-02T04:04:11.252Z,16.90
2023-02-02T04:06:43.519Z,17.52
2023-02-02T04:09:16.697Z,18.62
2023-02-02T04:11:48.994Z,15.18
2023-02-02T04:14:21.423Z,17.25
2023-02-02T04:16:53.798Z,16.60
2023-02-02T04:19:26.664Z,17.05
2023-02-02T04:21:59.048Z,24.43
2023-02-02T04:24:31.679Z,19.30
2023-02-02T04:27:03.831Z,16.75
2023-02-02T04:29:35.949Z,18.30
2023-02-02T04:32:09.191Z,16.57
2023-02-02T04:34:41.479Z,17.37
2023-02-02T04:37:14.131Z,20.68
2023-02-02T04:39:46.265Z,18.90
2023-02-02T04:42:18.775Z,17.62
2023-02-02T04:44:51.192Z,19.77
2023-02-02T04:47:23.509Z,17.85
2023-02-02T04:49:55.684Z,25.37
2023-02-02T04:52:27.896Z,18.23
2023-02-02T04:55:00.814Z,20.77
2023-02-02T04:57:33.798Z,17.98
2023-02-02T05:00:06.592Z,19.55
2023-02-02T05:02:41.566Z,18.25
2023-02-02T05:05:15.224Z,22.45
2023-02-02T05:07:47.298Z,21.25
2023-02-02T05:10:19.882Z,20.25
2023-02-02T05:12:54.311Z,22.42
2023-02-02T05:15:27.021Z,22.77
2023-02-02T05:17:59.301Z,20.48
2023-02-02T05:20:31.443Z,26.15
2023-02-02T05:23:03.639Z,25.70
2023-02-02T05:25:36.132Z,27.48
2023-02-02T05:28:08.106Z,23.07
2023-02-02T05:30:41.892Z,25.92
2023-02-02T05:33:14.541Z,22.95
2023-02-02T05:35:51.474Z,20.08
2023-02-02T05:38:23.926Z,23.92
2023-02-02T05:40:55.914Z,23.67
2023-02-02T05:43:29.395Z,23.98
2023-02-02T05:46:03.144Z,29.90
2023-02-02T05:48:36.557Z,25.60
2023-02-02T05:51:14.403Z,25.23
2023-02-02T05:53:47.532Z,23.73
2023-02-02T05:56:19.585Z,27.77
2023-02-02T05:58:52.037Z,23.20
2023-02-02T06:01:25.773Z,25.77
2023-02-02T06:03:59.003Z,26.97
2023-02-02T06:06:32.109Z,21.15
2023-02-02T06:09:08.042Z,28.83
2023-02-02T06:11:41.093Z,22.20
2023-02-02T06:14:13.633Z,25.75
2023-02-02T06:16:46.526Z,25.45
2023-02-02T06:19:19.314Z,26.73
2023-02-02T06:21:51.473Z,23.15
2023-02-02T06:24:24.878Z,33.13
2023-02-02T06:26:57.456Z,23.98
2023-02-02T06:29:29.981Z,27.93
2023-02-02T06:32:03.613Z,25.37
2023-02-02T06:34:36.872Z,27.93
2023-02-02T06:37:09.379Z,28.45
2023-02-02T06:39:42.278Z,27.60
2023-02-02T06:42:21.768Z,26.52
2023-02-02T06:44:51.521Z,24.02
2023-02-02T06:47:26.543Z,24.15
2023-02-02T06:49:59.030Z,24.02
2023-02-02T06:52:33.064Z,38.33
2023-02-02T06:55:05.350Z,22.60
2023-02-02T06:57:37.738Z,22.48
2023-02-02T07:00:10.838Z,20.80
2023-02-02T07:02:47.022Z,18.57
2023-02-02T07:05:24.804Z,25.82
2023-02-02T07:07:57.488Z,24.98
2023-02-02T07:11:09.440Z,26.80
2023-02-02T07:13:05.821Z,23.52
2023-02-02T07:15:41.343Z,21.42
2023-02-02T07:18:13.723Z,21.48
2023-02-02T07:20:46.131Z,23.90
2023-02-02T07:23:18.865Z,24.90
2023-02-02T07:25:51.482Z,24.02
2023-02-02T07:28:24.037Z,25.52
2023-02-02T07:30:57.179Z,23.25
2023-02-02T07:33:29.847Z,22.40
2023-02-02T07:36:03.412Z,21.27
2023-02-02T07:38:35.879Z,23.52
2023-02-02T07:41:08.917Z,22.48
2023-02-02T07:43:41.605Z,21.25
2023-02-02T07:46:14.533Z,24.52
2023-02-02T07:48:47.765Z,22.45
2023-02-02T07:51:20.780Z,23.80
2023-02-02T07:53:55.186Z,19.98
2023-02-02T07:56:29.173Z,24.02
2023-02-02T07:59:01.510Z,23.70
2023-02-02T08:01:33.967Z,22.15
2023-02-02T08:04:07.133Z,25.55
2023-02-02T08:06:40.714Z,25.10
2023-02-02T08:09:12.817Z,25.68
2023-02-02T08:11:44.965Z,18.98
2023-02-02T08:14:17.180Z,20.35
2023-02-02T08:16:49.658Z,27.35
2023-02-02T08:19:22.648Z,22.13
2023-02-02T08:21:55.792Z,23.10
2023-02-02T08:24:27.847Z,22.67
2023-02-02T08:27:00.135Z,22.42
2023-02-02T08:29:32.596Z,19.35
2023-02-02T08:32:05.841Z,23.57
2023-02-02T08:34:38.765Z,22.35
2023-02-02T08:37:11.422Z,25.05
2023-02-02T08:39:44.391Z,19.90
2023-02-02T08:42:16.983Z,20.17
2023-02-02T08:46:01.460Z,20.95
2023-02-02T08:47:23.917Z,20.72
2023-02-02T08:49:56.827Z,22.50
2023-02-02T08:52:29.113Z,23.22
2023-02-02T08:55:01.259Z,24.70
2023-02-02T08:57:34.954Z,18.98
2023-02-02T09:00:08.665Z,19.30
2023-02-02T09:02:40.987Z,17.23
2023-02-02T09:05:13.077Z,17.60
2023-02-02T09:07:46.169Z,20.00
2023-02-02T09:10:19.125Z,19.25
2023-02-02T09:12:51.163Z,19.87
2023-02-02T09:15:23.773Z,20.43
2023-02-02T09:17:56.861Z,17.70
2023-02-02T09:20:29.776Z,15.30
2023-02-02T09:23:02.127Z,18.17
2023-02-02T09:25:34.664Z,16.50
2023-02-02T09:28:07.064Z,20.97
2023-02-02T09:30:39.816Z,16.80
2023-02-02T09:33:12.212Z,15.13
2023-02-02T09:35:44.339Z,18.45
2023-02-02T09:38:16.932Z,17.55
2023-02-02T09:40:49.161Z,20.75
2023-02-02T09:43:42.737Z,25.05
2023-02-02T09:46:27.146Z,18.73
2023-02-02T09:49:05.269Z,21.50
2023-02-02T09:51:41.031Z,12.90
2023-02-02T09:54:24.937Z,18.30
2023-02-02T09:57:00.248Z,19.57
2023-02-02T09:59:40.642Z,18.85
2023-02-02T10:02:32.805Z,17.32
2023-02-02T10:05:09.697Z,17.82
2023-02-02T10:07:45.804Z,17.50
2023-02-02T10:10:21.049Z,16.23
2023-02-02T10:12:57.255Z,17.80
2023-02-02T10:15:38.637Z,16.40
2023-02-02T10:18:22.827Z,23.75
2023-02-02T10:21:01.280Z,19.60
2023-02-02T10:23:36.677Z,17.05
2023-02-02T10:26:20.747Z,16.87
2023-02-02T10:29:12.303Z,13.50
2023-02-02T10:31:54.371Z,23.12
2023-02-02T10:34:44.488Z,19.35
2023-02-02T10:37:38.139Z,19.95
2023-02-02T10:40:25.649Z,20.97
2023-02-02T10:43:21.676Z,19.55
2023-02-02T10:45:55.241Z,21.10
2023-02-02T10:48:36.431Z,18.90
2023-02-02T10:51:14.657Z,18.50
2023-02-02T10:53:50.461Z,22.48
2023-02-02T10:56:28.923Z,22.58
2023-02-02T10:59:20.695Z,20.60
2023-02-02T11:01:53.587Z,20.30
2023-02-02T11:04:44.651Z,20.00
2023-02-02T11:07:18.418Z,23.22
2023-02-02T11:09:51.371Z,23.62
2023-02-02T11:12:39.048Z,21.23
2023-02-02T11:15:14.210Z,24.60
2023-02-02T11:17:46.954Z,19.25
2023-02-02T11:20:28.237Z,23.30
2023-02-02T11:23:05.517Z,19.48
2023-02-02T11:25:40.017Z,19.40
2023-02-02T11:28:25.029Z,29.67
2023-02-02T11:30:58.312Z,19.15
2023-02-02T11:33:34.572Z,24.53
2023-02-02T11:36:09.940Z,21.68
2023-02-02T11:38:42.229Z,17.17
2023-02-02T11:41:15.777Z,22.32
2023-02-02T11:43:54.117Z,19.15
2023-02-02T11:46:29.587Z,20.95
2023-02-02T11:49:06.068Z,18.92
2023-02-02T11:51:38.996Z,22.45
2023-02-02T11:54:20.381Z,18.27
2023-02-02T11:56:55.674Z,21.37
2023-02-02T11:59:31.326Z,20.37
2023-02-02T12:02:16.002Z,22.10
2023-02-02T12:07:32.272Z,18.12
2023-02-02T12:10:07.284Z,20.02
2023-02-02T12:12:52.382Z,22.48
2023-02-02T12:15:31.056Z,17.07
2023-02-02T12:18:09.314Z,18.55
2023-02-02T12:20:53.611Z,18.23
2023-02-02T12:23:42.547Z,19.32
2023-02-02T12:26:24.367Z,19.80
2023-02-02T12:29:19.128Z,22.60
2023-02-02T12:34:53.328Z,24.00
2023-02-02T12:37:37.645Z,25.77
2023-02-02T12:40:43.124Z,25.17
2023-02-02T12:43:41.370Z,18.25
2023-02-02T12:46:25.866Z,17.92
2023-02-02T12:49:24.079Z,19.70
2023-02-02T12:52:14.556Z,22.40
2023-02-02T12:55:14.424Z,17.35
2023-02-02T12:57:53.195Z,18.30
2023-02-02T13:00:51.250Z,20.45
2023-02-02T13:03:43.155Z,23.45
2023-02-02T13:06:30.537Z,18.60
2023-02-02T13:09:19.906Z,26.80
2023-02-02T13:12:12.629Z,20.57
2023-02-02T13:14:57.926Z,25.50
2023-02-02T13:17:44.922Z,26.68
2023-02-02T13:20:31.830Z,21.68
2023-02-02T13:23:12.953Z,25.02
2023-02-02T13:25:51.296Z,22.65
2023-02-02T13:28:35.743Z,21.30
2023-02-02T13:31:14.281Z,21.73
2023-02-02T13:33:50.007Z,20.85
2023-02-02T13:36:30.054Z,25.25
2023-02-02T13:39:05.477Z,25.20
2023-02-02T13:41:38.944Z,22.37
2023-02-02T13:44:19.832Z,26.57
2023-02-02T13:46:57.647Z,22.25
2023-02-02T13:49:33.957Z,26.20
2023-02-02T13:52:26.210Z,25.57
2023-02-02T13:55:27.244Z,24.90
2023-02-02T13:58:14.442Z,26.10
2023-02-02T14:00:50.416Z,27.58
2023-02-02T14:03:36.800Z,25.80
2023-02-02T14:06:17.426Z,26.95
2023-02-02T14:08:52.731Z,27.80
2023-02-02T14:11:33.982Z,27.30
2023-02-02T14:14:33.725Z,26.33
2023-02-02T14:17:12.012Z,27.65
2023-02-02T14:19:56.584Z,26.25
2023-02-02T14:22:48.276Z,29.57
2023-02-02T14:25:37.213Z,25.82
2023-02-02T14:28:14.956Z,21.77
2023-02-02T14:30:51.231Z,29.50
2023-02-02T14:33:29.160Z,26.93
2023-02-02T14:36:03.786Z,28.57
2023-02-02T14:38:48.016Z,26.00
2023-02-02T14:41:49.665Z,27.82
2023-02-02T14:44:22.681Z,29.18
2023-02-02T14:46:54.880Z,29.27
2023-02-02T14:49:29.825Z,28.85
2023-02-02T14:52:05.603Z,28.47
2023-02-02T14:54:41.205Z,34.55
2023-02-02T14:57:28.606Z,28.70
2023-02-02T15:00:01.992Z,32.13
2023-02-02T15:02:37.769Z,31.42
2023-02-02T15:05:35.444Z,34.30
2023-02-02T15:08:13.669Z,30.55
2023-02-02T15:10:57.511Z,30.52
2023-02-02T15:13:37.004Z,30.60
2023-02-02T15:16:15.101Z,30.37
2023-02-02T15:18:50.204Z,28.77
2023-02-02T15:21:24.654Z,30.02
2023-02-02T15:23:58.372Z,30.65
2023-02-02T15:26:36.514Z,29.82
2023-02-02T15:29:17.652Z,27.05
2023-02-02T15:31:54.556Z,26.62
2023-02-02T15:34:56.784Z,27.27
2023-02-02T15:37:35.649Z,24.52
2023-02-02T15:40:10.839Z,26.02
2023-02-02T15:42:54.823Z,24.72
2023-02-02T15:45:37.590Z,28.17
2023-02-02T15:48:12.709Z,27.75
2023-02-02T15:50:51.382Z,23.50
2023-02-02T15:53:26.399Z,30.55
2023-02-02T15:55:59.361Z,26.23
2023-02-02T15:58:34.337Z,27.32
2023-02-02T16:01:09.774Z,28.10
2023-02-02T16:03:53.656Z,32.33
2023-02-02T16:06:26.438Z,30.20
2023-02-02T16:08:59.096Z,32.08
2023-02-02T16:11:31.775Z,26.68
2023-02-02T16:14:07.242Z,32.63
2023-02-02T16:16:41.344Z,27.55
2023-02-02T16:22:07.510Z,21.70
2023-02-02T16:24:42.839Z,27.98
2023-02-02T16:27:17.803Z,26.27
2023-02-02T16:29:50.966Z,29.10
2023-02-02T16:32:35.919Z,26.10
2023-02-02T16:35:27.515Z,26.15
2023-02-02T16:38:28.116Z,26.50
2023-02-02T16:41:11.507Z,29.27
2023-02-02T16:43:44.736Z,29.27
2023-02-02T16:46:19.014Z,32.53
2023-02-02T16:49:02.257Z,33.78
2023-02-02T16:51:37.299Z,26.75
2023-02-02T16:54:12.564Z,29.98
2023-02-02T16:56:47.467Z,30.55
2023-02-02T16:59:28.578Z,30.10
2023-02-02T17:02:03.893Z,27.02
2023-02-02T17:04:36.474Z,25.80
2023-02-02T17:07:16.166Z,30.57
2023-02-02T17:09:49.642Z,30.68
2023-02-02T17:12:34.527Z,27.07
2023-02-02T17:15:03.637Z,27.82
2023-02-02T17:17:36.094Z,30.23
2023-02-02T17:20:08.697Z,26.97
2023-02-02T17:22:44.514Z,26.12
2023-02-02T17:25:19.857Z,25.35
2023-02-02T17:27:52.801Z,25.30
2023-02-02T17:30:25.241Z,29.67
2023-02-02T17:32:57.240Z,26.90
2023-02-02T17:35:39.935Z,25.70
2023-02-02T17:38:03.497Z,27.15
2023-02-02T17:40:35.777Z,30.45
2023-02-02T17:43:10.665Z,26.62
2023-02-02T17:45:43.017Z,30.70
2023-02-02T17:48:16.526Z,28.00
2023-02-02T17:50:49.522Z,30.37
2023-02-02T17:53:23.533Z,24.52
2023-02-02T17:55:55.844Z,29.12
2023-02-02T17:58:28.144Z,24.65
2023-02-02T18:01:01.307Z,30.15
2023-02-02T18:03:36.278Z,25.72
2023-02-02T18:06:10.787Z,25.25
2023-02-02T18:11:18.801Z,24.63
2023-02-02T18:13:50.852Z,23.83
2023-02-02T18:16:22.906Z,30.40
2023-02-02T18:18:55.451Z,28.23
2023-02-02T18:21:27.681Z,24.20
2023-02-02T18:24:00.107Z,25.65
2023-02-02T18:26:34.250Z,30.17
2023-02-02T18:31:37.708Z,26.60
2023-02-02T18:34:09.861Z,28.25
2023-02-02T18:36:42.070Z,28.45
2023-02-02T18:39:14.107Z,29.75
2023-02-02T18:41:47.559Z,28.67
2023-02-02T18:44:19.746Z,23.35
2023-02-02T18:46:54.478Z,30.12
2023-02-02T18:49:26.577Z,32.15
2023-02-02T18:52:00.148Z,24.20
2023-02-02T18:54:35.867Z,27.67
2023-02-02T18:57:08.898Z,32.03
2023-02-02T18:59:42.993Z,30.13
2023-02-02T19:02:17.727Z,30.75
2023-02-02T19:05:00.738Z,28.40
2023-02-02T19:07:52.677Z,30.82
2023-02-02T19:10:27.609Z,30.62
2023-02-02T19:13:22.182Z,30.17
2023-02-02T19:15:56.099Z,28.02
2023-02-02T19:18:28.702Z,28.90
2023-02-02T19:21:01.053Z,33.23
2023-02-02T19:23:33.425Z,28.23
2023-02-02T19:26:08.741Z,30.80
2023-02-02T19:28:41.366Z,33.42
2023-02-02T19:31:16.324Z,33.13
2023-02-02T19:33:51.060Z,35.05
2023-02-02T19:36:25.069Z,32.40
2023-02-02T19:39:18.133Z,31.00
2023-02-02T19:41:51.531Z,28.65
2023-02-02T19:44:26.582Z,34.20
2023-02-02T19:47:00.313Z,29.92
2023-02-02T19:49:35.578Z,27.90
2023-02-02T19:52:11.589Z,33.35
2023-02-02T19:54:46.450Z,35.33
2023-02-02T19:57:41.144Z,28.80
2023-02-02T20:00:28.993Z,29.95
2023-02-02T20:03:07.777Z,27.40
2023-02-02T20:05:42.475Z,30.37
2023-02-02T20:08:26.573Z,31.12
2023-02-02T20:11:01.435Z,30.85
2023-02-02T20:13:42.691Z,32.33
2023-02-02T20:16:23.864Z,32.23
2023-02-02T20:18:58.824Z,31.97
2023-02-02T20:21:45.176Z,33.18
2023-02-02T20:24:29.142Z,31.68
2023-02-02T20:27:04.300Z,33.85
2023-02-02T20:29:44.217Z,33.53
2023-02-02T20:32:29.086Z,36.17
2023-02-02T20:35:02.640Z,33.63
2023-02-02T20:37:37.040Z,29.30
2023-02-02T20:40:14.704Z,34.03
2023-02-02T20:42:48.174Z,36.90
2023-02-02T20:45:21.962Z,38.83
2023-02-02T20:47:54.146Z,52.90
2023-02-02T20:50:26.624Z,39.73
2023-02-02T20:53:00.097Z,39.55
2023-02-02T20:55:33.824Z,48.40
2023-02-02T20:58:06.809Z,39.20
2023-02-02T21:00:39.758Z,39.48
2023-02-02T21:03:13.350Z,40.12
2023-02-02T21:05:45.689Z,41.83
2023-02-02T21:08:18.071Z,46.65
2023-02-02T21:10:50.043Z,33.98
2023-02-02T21:13:22.106Z,35.58
2023-02-02T21:15:54.461Z,35.92
2023-02-02T21:18:27.133Z,37.75
2023-02-02T21:20:59.496Z,34.75
2023-02-02T21:23:31.794Z,37.45
2023-02-02T21:26:03.690Z,32.63
2023-02-02T21:28:35.748Z,37.05
2023-02-02T21:31:12.181Z,33.20
2023-02-02T21:33:45.819Z,36.65
2023-02-02T21:36:48.728Z,34.27
2023-02-02T21:39:28.920Z,32.10
2023-02-02T21:42:15.677Z,32.05
2023-02-02T21:44:59.182Z,33.40
2023-02-02T21:47:37.121Z,36.28
2023-02-02T21:50:20.697Z,36.53
2023-02-02T21:52:52.749Z,38.30
2023-02-02T21:55:39.578Z,38.55
2023-02-02T21:58:26.256Z,34.20
2023-02-02T22:01:16.447Z,32.65
2023-02-02T22:03:50.109Z,32.17
2023-02-02T22:06:31.116Z,37.65
2023-02-02T22:09:18.158Z,33.92
2023-02-02T22:12:04.564Z,37.90
2023-02-02T22:14:42.347Z,29.27
2023-02-02T22:17:25.563Z,33.50
2023-02-02T22:20:03.016Z,33.75
2023-02-02T22:22:37.381Z,32.88
2023-02-02T22:25:22.906Z,31.02
2023-02-02T22:28:01.240Z,30.05
2023-02-02T22:33:13.720Z,33.33
2023-02-02T22:35:46.683Z,37.73
2023-02-02T22:38:21.861Z,31.73
2023-02-02T22:40:54.501Z,35.73
2023-02-02T22:43:26.823Z,31.30
2023-02-02T22:45:59.089Z,31.17
2023-02-02T22:48:31.716Z,35.45
2023-02-02T22:51:03.690Z,30.65
2023-02-02T22:53:36.087Z,27.90
2023-02-02T22:56:08.562Z,31.25
2023-02-02T22:58:40.982Z,34.92
2023-02-02T23:01:13.984Z,29.42
2023-02-02T23:03:47.670Z,28.65
2023-02-02T23:06:19.759Z,33.40
2023-02-02T23:08:52.324Z,32.25
2023-02-02T23:11:24.337Z,34.00
2023-02-02T23:13:56.472Z,35.52
2023-02-02T23:16:28.628Z,30.45
2023-02-02T23:19:00.612Z,31.95
2023-02-02T23:21:33.113Z,27.90
2023-02-02T23:24:05.220Z,30.15
2023-02-02T23:26:37.160Z,29.50
2023-02-02T23:29:09.874Z,33.28
2023-02-02T23:31:42.963Z,31.80
2023-02-02T23:34:15.059Z,31.37
2023-02-02T23:36:47.112Z,29.35
2023-02-02T23:39:19.204Z,32.23
2023-02-02T23:41:51.209Z,26.60
2023-02-02T23:44:23.207Z,29.60
2023-02-02T23:46:55.566Z,31.40
2023-02-02T23:49:29.141Z,30.90
2023-02-02T23:52:01.774Z,28.80
2023-02-02T23:54:34.672Z,30.70
2023-02-02T23:57:06.799Z,28.00
2023-02-02T23:59:38.910Z,32.50
